sensor_id;sensor_type;location;lat;lon;timestamp;pressure;altitude;pressure_sealevel;temperature;humidity
30636;BME280;17400;52.392;9.750;2022-10-15T00:02:14;100094.59;;;15.19;100.00
30636;BME280;17400;52.392;9.750;2022-10-15T00:04:41;100091.06;;;15.18;100.00
30636;BME280;17400;52.392;9.750;2022-10-15T00:07:10;100094.53;;;15.13;100.00
30636;BME280;17400;52.392;9.750;2022-10-15T00:09:38;100094.28;;;15.15;100.00
30636;BME280;17400;52.392;9.750;2022-10-15T00:12:06;100091.22;;;15.11;100.00
30636;BME280;17400;52.392;9.750;2022-10-15T00:14:34;100085.75;;;15.11;100.00
30636;BME280;17400;52.392;9.750;2022-10-15T00:17:01;100084.34;;;15.09;100.00
30636;BME280;17400;52.392;9.750;2022-10-15T00:19:29;100087.88;;;15.09;100.00
30636;BME280;17400;52.392;9.750;2022-10-15T00:21:57;100081.38;;;15.10;100.00
30636;BME280;17400;52.392;9.750;2022-10-15T00:24:26;100076.66;;;15.06;100.00
30636;BME280;17400;52.392;9.750;2022-10-15T00:26:54;100081.00;;;15.07;100.00
30636;BME280;17400;52.392;9.750;2022-10-15T00:29:21;100082.09;;;15.06;100.00
30636;BME280;17400;52.392;9.750;2022-10-15T00:31:49;100078.53;;;15.05;100.00
30636;BME280;17400;52.392;9.750;2022-10-15T00:34:17;100082.09;;;15.06;100.00
30636;BME280;17400;52.392;9.750;2022-10-15T00:36:44;100087.31;;;15.07;100.00
30636;BME280;17400;52.392;9.750;2022-10-15T00:39:12;100095.13;;;15.04;100.00
30636;BME280;17400;52.392;9.750;2022-10-15T00:41:43;100091.00;;;15.01;100.00
30636;BME280;17400;52.392;9.750;2022-10-15T00:44:49;100086.38;;;15.02;100.00
30636;BME280;17400;52.392;9.750;2022-10-15T00:47:21;100093.72;;;15.01;100.00
30636;BME280;17400;52.392;9.750;2022-10-15T00:49:55;100090.75;;;15.03;100.00
30636;BME280;17400;52.392;9.750;2022-10-15T00:52:33;100077.63;;;14.99;100.00
30636;BME280;17400;52.392;9.750;2022-10-15T00:55:05;100079.28;;;15.01;100.00
30636;BME280;17400;52.392;9.750;2022-10-15T00:57:37;100086.59;;;15.00;100.00
30636;BME280;17400;52.392;9.750;2022-10-15T01:00:23;100092.91;;;15.01;100.00
30636;BME280;17400;52.392;9.750;2022-10-15T01:02:51;100087.69;;;14.99;100.00
30636;BME280;17400;52.392;9.750;2022-10-15T01:05:18;100084.13;;;14.98;100.00
30636;BME280;17400;52.392;9.750;2022-10-15T01:07:46;100085.78;;;14.99;100.00
30636;BME280;17400;52.392;9.750;2022-10-15T01:10:14;100080.09;;;15.01;100.00
30636;BME280;17400;52.392;9.750;2022-10-15T01:12:57;100083.06;;;14.99;100.00
30636;BME280;17400;52.392;9.750;2022-10-15T01:15:33;100087.69;;;14.99;100.00
30636;BME280;17400;52.392;9.750;2022-10-15T01:18:09;100070.50;;;14.98;100.00
30636;BME280;17400;52.392;9.750;2022-10-15T01:21:02;100072.97;;;15.00;100.00
30636;BME280;17400;52.392;9.750;2022-10-15T01:23:59;100074.88;;;14.99;100.00
30636;BME280;17400;52.392;9.750;2022-10-15T01:29:46;100069.69;;;14.98;100.00
30636;BME280;17400;52.392;9.750;2022-10-15T01:32:24;100074.28;;;14.97;100.00
30636;BME280;17400;52.392;9.750;2022-10-15T01:34:55;100068.03;;;14.97;100.00
30636;BME280;17400;52.392;9.750;2022-10-15T01:37:36;100074.28;;;14.97;100.00
30636;BME280;17400;52.392;9.750;2022-10-15T01:40:08;100064.47;;;14.96;100.00
30636;BME280;17400;52.392;9.750;2022-10-15T01:42:45;100062.47;;;14.92;100.00
30636;BME280;17400;52.392;9.750;2022-10-15T01:45:19;100071.94;;;14.89;100.00
30636;BME280;17400;52.392;9.750;2022-10-15T01:47:53;100065.34;;;14.85;100.00
30636;BME280;17400;52.392;9.750;2022-10-15T01:50:25;100062.84;;;14.83;100.00
30636;BME280;17400;52.392;9.750;2022-10-15T01:52:55;100058.97;;;14.79;100.00
30636;BME280;17400;52.392;9.750;2022-10-15T01:55:24;100064.41;;;14.79;100.00
30636;BME280;17400;52.392;9.750;2022-10-15T01:57:54;100066.88;;;14.81;100.00
30636;BME280;17400;52.392;9.750;2022-10-15T02:00:23;100068.19;;;14.78;100.00
30636;BME280;17400;52.392;9.750;2022-10-15T02:02:58;100071.41;;;14.75;100.00
30636;BME280;17400;52.392;9.750;2022-10-15T02:05:28;100064.31;;;14.74;100.00
30636;BME280;17400;52.392;9.750;2022-10-15T02:08:02;100055.53;;;14.72;100.00
30636;BME280;17400;52.392;9.750;2022-10-15T02:10:41;100054.59;;;14.66;100.00
30636;BME280;17400;52.392;9.750;2022-10-15T02:13:16;100054.59;;;14.66;100.00
30636;BME280;17400;52.392;9.750;2022-10-15T02:15:52;100049.41;;;14.65;100.00
30636;BME280;17400;52.392;9.750;2022-10-15T02:18:29;100048.19;;;14.61;100.00
30636;BME280;17400;52.392;9.750;2022-10-15T02:21:05;100044.88;;;14.59;100.00
30636;BME280;17400;52.392;9.750;2022-10-15T02:23:38;100053.28;;;14.57;100.00
30636;BME280;17400;52.392;9.750;2022-10-15T02:26:11;100049.63;;;14.52;100.00
30636;BME280;17400;52.392;9.750;2022-10-15T02:28:42;100049.28;;;14.48;100.00
30636;BME280;17400;52.392;9.750;2022-10-15T02:31:13;100058.50;;;14.47;100.00
30636;BME280;17400;52.392;9.750;2022-10-15T02:33:45;100052.25;;;14.46;100.00
30636;BME280;17400;52.392;9.750;2022-10-15T02:36:14;100045.38;;;14.44;100.00
30636;BME280;17400;52.392;9.750;2022-10-15T02:38:43;100042.91;;;14.42;100.00
30636;BME280;17400;52.392;9.750;2022-10-15T02:41:12;100044.56;;;14.43;100.00
30636;BME280;17400;52.392;9.750;2022-10-15T02:43:40;100039.22;;;14.37;100.00
30636;BME280;17400;52.392;9.750;2022-10-15T02:46:09;100038.28;;;14.31;100.00
30636;BME280;17400;52.392;9.750;2022-10-15T02:48:39;100035.56;;;14.31;100.00
30636;BME280;17400;52.392;9.750;2022-10-15T02:51:08;100035.44;;;14.26;100.00
30636;BME280;17400;52.392;9.750;2022-10-15T02:53:35;100044.09;;;14.23;100.00
30636;BME280;17400;52.392;9.750;2022-10-15T02:56:03;100037.84;;;14.22;100.00
30636;BME280;17400;52.392;9.750;2022-10-15T02:58:31;100045.66;;;14.19;100.00
30636;BME280;17400;52.392;9.750;2022-10-15T03:00:59;100039.59;;;14.16;100.00
30636;BME280;17400;52.392;9.750;2022-10-15T03:03:27;100044.47;;;14.14;100.00
30636;BME280;17400;52.392;9.750;2022-10-15T03:05:54;100045.53;;;14.13;100.00
30636;BME280;17400;52.392;9.750;2022-10-15T03:08:23;100044.09;;;14.11;100.00
30636;BME280;17400;52.392;9.750;2022-10-15T03:10:51;100043.28;;;14.10;100.00
30636;BME280;17400;52.392;9.750;2022-10-15T03:13:19;100041.88;;;14.08;100.00
30636;BME280;17400;52.392;9.750;2022-10-15T03:15:46;100039.72;;;14.10;100.00
30636;BME280;17400;52.392;9.750;2022-10-15T03:18:14;100044.34;;;14.09;100.00
30636;BME280;17400;52.392;9.750;2022-10-15T03:20:42;100036.53;;;14.01;100.00
30636;BME280;17400;52.392;9.750;2022-10-15T03:23:09;100040.78;;;13.97;100.00
30636;BME280;17400;52.392;9.750;2022-10-15T03:25:38;100038.91;;;13.97;100.00
30636;BME280;17400;52.392;9.750;2022-10-15T03:28:06;100041.63;;;13.97;100.00
30636;BME280;17400;52.392;9.750;2022-10-15T03:30:34;100027.41;;;13.95;100.00
30636;BME280;17400;52.392;9.750;2022-10-15T03:33:01;100036.88;;;13.93;100.00
30636;BME280;17400;52.392;9.750;2022-10-15T03:35:29;100036.88;;;13.93;100.00
30636;BME280;17400;52.392;9.750;2022-10-15T03:37:57;100033.56;;;13.91;100.00
30636;BME280;17400;52.392;9.750;2022-10-15T03:40:25;100034.88;;;13.88;100.00
30636;BME280;17400;52.392;9.750;2022-10-15T03:42:54;100034.38;;;13.79;100.00
30636;BME280;17400;52.392;9.750;2022-10-15T03:45:22;100038.75;;;13.80;100.00
30636;BME280;17400;52.392;9.750;2022-10-15T03:47:50;100048.47;;;13.76;100.00
30636;BME280;17400;52.392;9.750;2022-10-15T03:50:19;100043.59;;;13.78;100.00
30636;BME280;17400;52.392;9.750;2022-10-15T03:52:47;100043.38;;;13.80;100.00
30636;BME280;17400;52.392;9.750;2022-10-15T03:55:14;100044.91;;;13.76;100.00
30636;BME280;17400;52.392;9.750;2022-10-15T03:57:42;100040.41;;;13.70;100.00
30636;BME280;17400;52.392;9.750;2022-10-15T04:00:13;100030.59;;;13.69;100.00
30636;BME280;17400;52.392;9.750;2022-10-15T04:02:41;100036.50;;;13.65;100.00
30636;BME280;17400;52.392;9.750;2022-10-15T04:05:09;100041.47;;;13.69;100.00
30636;BME280;17400;52.392;9.750;2022-10-15T04:07:37;100052.81;;;13.65;100.00
30636;BME280;17400;52.392;9.750;2022-10-15T04:10:06;100046.66;;;13.58;100.00
30636;BME280;17400;52.392;9.750;2022-10-15T04:12:34;100052.47;;;13.62;100.00
30636;BME280;17400;52.392;9.750;2022-10-15T04:15:02;100048.91;;;13.61;100.00
30636;BME280;17400;52.392;9.750;2022-10-15T04:17:31;100045.34;;;13.61;100.00
30636;BME280;17400;52.392;9.750;2022-10-15T04:19:59;100041.81;;;13.60;100.00
30636;BME280;17400;52.392;9.750;2022-10-15T04:22:27;100058.13;;;13.60;100.00
30636;BME280;17400;52.392;9.750;2022-10-15T04:24:54;100044.78;;;13.59;100.00
30636;BME280;17400;52.392;9.750;2022-10-15T04:27:22;100053.75;;;13.59;100.00
30636;BME280;17400;52.392;9.750;2022-10-15T04:29:50;100048.91;;;13.61;100.00
30636;BME280;17400;52.392;9.750;2022-10-15T04:32:17;100047.50;;;13.59;100.00
30636;BME280;17400;52.392;9.750;2022-10-15T04:34:47;100043.34;;;13.56;100.00
30636;BME280;17400;52.392;9.750;2022-10-15T04:37:14;100040.84;;;13.55;100.00
30636;BME280;17400;52.392;9.750;2022-10-15T04:39:42;100047.69;;;13.57;100.00
30636;BME280;17400;52.392;9.750;2022-10-15T04:42:10;100053.38;;;13.56;100.00
30636;BME280;17400;52.392;9.750;2022-10-15T04:44:37;100042.97;;;13.53;100.00
30636;BME280;17400;52.392;9.750;2022-10-15T04:47:05;100053.03;;;13.52;100.00
30636;BME280;17400;52.392;9.750;2022-10-15T04:49:33;100049.25;;;13.53;100.00
30636;BME280;17400;52.392;9.750;2022-10-15T04:52:02;100049.47;;;13.52;100.00
30636;BME280;17400;52.392;9.750;2022-10-15T04:54:30;100055.75;;;13.52;100.00
30636;BME280;17400;52.392;9.750;2022-10-15T04:56:58;100060.13;;;13.53;100.00
30636;BME280;17400;52.392;9.750;2022-10-15T04:59:25;100058.69;;;13.50;100.00
30636;BME280;17400;52.392;9.750;2022-10-15T05:01:53;100059.53;;;13.51;100.00
30636;BME280;17400;52.392;9.750;2022-10-15T05:04:21;100066.03;;;13.50;100.00
30636;BME280;17400;52.392;9.750;2022-10-15T05:06:48;100060.59;;;13.50;100.00
30636;BME280;17400;52.392;9.750;2022-10-15T05:09:17;100055.97;;;13.50;100.00
30636;BME280;17400;52.392;9.750;2022-10-15T05:11:45;100058.94;;;13.49;100.00
30636;BME280;17400;52.392;9.750;2022-10-15T05:14:12;100056.81;;;13.51;100.00
30636;BME280;17400;52.392;9.750;2022-10-15T05:16:41;100059.28;;;13.53;100.00
30636;BME280;17400;52.392;9.750;2022-10-15T05:19:10;100060.13;;;13.53;100.00
30636;BME280;17400;52.392;9.750;2022-10-15T05:21:38;100065.56;;;13.53;100.00
30636;BME280;17400;52.392;9.750;2022-10-15T05:24:06;100067.22;;;13.54;100.00
30636;BME280;17400;52.392;9.750;2022-10-15T05:26:35;100059.88;;;13.55;100.00
30636;BME280;17400;52.392;9.750;2022-10-15T05:29:03;100060.97;;;13.54;100.00
30636;BME280;17400;52.392;9.750;2022-10-15T05:31:32;100061.28;;;13.45;100.00
30636;BME280;17400;52.392;9.750;2022-10-15T05:34:05;100055.63;;;13.47;100.00
30636;BME280;17400;52.392;9.750;2022-10-15T05:36:33;100064.59;;;13.47;100.00
30636;BME280;17400;52.392;9.750;2022-10-15T05:39:03;100056.91;;;13.44;100.00
30636;BME280;17400;52.392;9.750;2022-10-15T05:41:32;100056.91;;;13.44;100.00
30636;BME280;17400;52.392;9.750;2022-10-15T05:44:01;100057.84;;;13.38;100.00
30636;BME280;17400;52.392;9.750;2022-10-15T05:46:29;100076.19;;;13.43;100.00
30636;BME280;17400;52.392;9.750;2022-10-15T05:48:57;100074.53;;;13.42;100.00
30636;BME280;17400;52.392;9.750;2022-10-15T05:51:26;100078.06;;;13.42;100.00
30636;BME280;17400;52.392;9.750;2022-10-15T05:53:54;100082.06;;;13.40;100.00
30636;BME280;17400;52.392;9.750;2022-10-15T05:56:25;100084.56;;;13.23;100.00
30636;BME280;17400;52.392;9.750;2022-10-15T05:58:53;100092.50;;;13.24;100.00
30636;BME280;17400;52.392;9.750;2022-10-15T06:01:22;100090.38;;;13.26;100.00
30636;BME280;17400;52.392;9.750;2022-10-15T06:03:50;100087.44;;;13.28;100.00
30636;BME280;17400;52.392;9.750;2022-10-15T06:06:19;100088.84;;;13.30;100.00
30636;BME280;17400;52.392;9.750;2022-10-15T06:08:48;100085.47;;;13.35;100.00
30636;BME280;17400;52.392;9.750;2022-10-15T06:11:16;100088.78;;;13.37;100.00
30636;BME280;17400;52.392;9.750;2022-10-15T06:13:45;100088.03;;;13.30;100.00
30636;BME280;17400;52.392;9.750;2022-10-15T06:16:14;100076.69;;;13.33;100.00
30636;BME280;17400;52.392;9.750;2022-10-15T06:18:51;100073.53;;;13.36;100.00
30636;BME280;17400;52.392;9.750;2022-10-15T06:21:19;100075.81;;;13.39;100.00
30636;BME280;17400;52.392;9.750;2022-10-15T06:23:47;100078.06;;;13.42;100.00
30636;BME280;17400;52.392;9.750;2022-10-15T06:26:16;100076.53;;;13.46;100.00
30636;BME280;17400;52.392;9.750;2022-10-15T06:28:44;100083.16;;;13.50;100.00
30636;BME280;17400;52.392;9.750;2022-10-15T06:31:14;100087.31;;;13.53;100.00
30636;BME280;17400;52.392;9.750;2022-10-15T06:33:42;100091.34;;;13.62;100.00
30636;BME280;17400;52.392;9.750;2022-10-15T06:36:11;100090.91;;;13.65;100.00
30636;BME280;17400;52.392;9.750;2022-10-15T06:38:40;100092.09;;;13.70;100.00
30636;BME280;17400;52.392;9.750;2022-10-15T06:41:09;100097.53;;;13.70;100.00
30636;BME280;17400;52.392;9.750;2022-10-15T06:43:37;100102.38;;;13.68;100.00
30636;BME280;17400;52.392;9.750;2022-10-15T06:46:05;100107.66;;;13.62;100.00
30636;BME280;17400;52.392;9.750;2022-10-15T06:48:33;100105.56;;;13.64;100.00
30636;BME280;17400;52.392;9.750;2022-10-15T06:51:01;100113.59;;;13.59;100.00
30636;BME280;17400;52.392;9.750;2022-10-15T06:53:31;100111.69;;;13.60;100.00
30636;BME280;17400;52.392;9.750;2022-10-15T06:56:00;100114.78;;;13.63;100.00
30636;BME280;17400;52.392;9.750;2022-10-15T06:58:28;100114.53;;;13.65;100.00
30636;BME280;17400;52.392;9.750;2022-10-15T07:01:00;100117.88;;;13.67;100.00
30636;BME280;17400;52.392;9.750;2022-10-15T07:03:28;100123.31;;;13.67;100.00
30636;BME280;17400;52.392;9.750;2022-10-15T07:06:00;100123.53;;;13.65;100.00
30636;BME280;17400;52.392;9.750;2022-10-15T07:08:28;100119.28;;;13.70;100.00
30636;BME280;17400;52.392;9.750;2022-10-15T07:10:57;100128.88;;;13.72;100.00
30636;BME280;17400;52.392;9.750;2022-10-15T07:13:25;100123.44;;;13.72;100.00
30636;BME280;17400;52.392;9.750;2022-10-15T07:15:53;100132.66;;;13.71;100.00
30636;BME280;17400;52.392;9.750;2022-10-15T07:18:21;100133.84;;;13.75;100.00
30636;BME280;17400;52.392;9.750;2022-10-15T07:20:49;100135.88;;;13.80;100.00
30636;BME280;17400;52.392;9.750;2022-10-15T07:23:17;100132.69;;;13.83;100.00
30636;BME280;17400;52.392;9.750;2022-10-15T07:25:50;100140.13;;;13.88;100.00
30636;BME280;17400;52.392;9.750;2022-10-15T07:28:19;100140.75;;;13.90;100.00
30636;BME280;17400;52.392;9.750;2022-10-15T07:30:46;100144.91;;;13.92;100.00
30636;BME280;17400;52.392;9.750;2022-10-15T07:33:14;100131.28;;;13.92;100.00
30636;BME280;17400;52.392;9.750;2022-10-15T07:35:42;100135.06;;;13.91;100.00
30636;BME280;17400;52.392;9.750;2022-10-15T07:38:10;100128.31;;;13.82;100.00
30636;BME280;17400;52.392;9.750;2022-10-15T07:40:37;100133.63;;;13.89;100.00
30636;BME280;17400;52.392;9.750;2022-10-15T07:43:05;100134.00;;;13.92;100.00
30636;BME280;17400;52.392;9.750;2022-10-15T07:45:35;100134.97;;;13.98;100.00
30636;BME280;17400;52.392;9.750;2022-10-15T07:48:04;100131.06;;;14.06;100.00
30636;BME280;17400;52.392;9.750;2022-10-15T07:50:32;100139.59;;;14.09;100.00
30636;BME280;17400;52.392;9.750;2022-10-15T07:53:06;100137.47;;;14.11;100.00
30636;BME280;17400;52.392;9.750;2022-10-15T07:55:34;100141.16;;;14.17;100.00
30636;BME280;17400;52.392;9.750;2022-10-15T07:58:02;100140.19;;;14.23;100.00
30636;BME280;17400;52.392;9.750;2022-10-15T08:00:34;100137.72;;;14.22;100.00
30636;BME280;17400;52.392;9.750;2022-10-15T08:03:02;100128.72;;;14.21;100.00
30636;BME280;17400;52.392;9.750;2022-10-15T08:05:30;100132.41;;;14.27;100.00
30636;BME280;17400;52.392;9.750;2022-10-15T08:07:58;100117.34;;;14.24;100.00
30636;BME280;17400;52.392;9.750;2022-10-15T08:10:25;100119.25;;;14.24;100.00
30636;BME280;17400;52.392;9.750;2022-10-15T08:12:53;100123.75;;;14.42;100.00
30636;BME280;17400;52.392;9.750;2022-10-15T08:15:21;100132.53;;;14.56;100.00
30636;BME280;17400;52.392;9.750;2022-10-15T08:17:50;100123.53;;;14.67;100.00
30636;BME280;17400;52.392;9.750;2022-10-15T08:20:18;100133.34;;;14.80;100.00
30636;BME280;17400;52.392;9.750;2022-10-15T08:22:46;100130.06;;;14.78;100.00
30636;BME280;17400;52.392;9.750;2022-10-15T08:25:13;100129.69;;;14.74;100.00
30636;BME280;17400;52.392;9.750;2022-10-15T08:27:41;100132.91;;;14.71;100.00
30636;BME280;17400;52.392;9.750;2022-10-15T08:30:09;100144.09;;;14.63;100.00
30636;BME280;17400;52.392;9.750;2022-10-15T08:32:37;100136.41;;;14.60;100.00
30636;BME280;17400;52.392;9.750;2022-10-15T08:35:07;100137.03;;;14.62;100.00
30636;BME280;17400;52.392;9.750;2022-10-15T08:37:35;100134.22;;;14.69;100.00
30636;BME280;17400;52.392;9.750;2022-10-15T08:40:05;100135.38;;;14.73;100.00
30636;BME280;17400;52.392;9.750;2022-10-15T08:42:36;100141.16;;;14.76;100.00
30636;BME280;17400;52.392;9.750;2022-10-15T08:45:10;100134.16;;;14.92;100.00
30636;BME280;17400;52.392;9.750;2022-10-15T08:47:42;100137.44;;;15.06;100.00
30636;BME280;17400;52.392;9.750;2022-10-15T08:50:22;100135.03;;;15.22;100.00
30636;BME280;17400;52.392;9.750;2022-10-15T08:52:54;100131.81;;;15.25;100.00
30636;BME280;17400;52.392;9.750;2022-10-15T08:55:26;100131.56;;;15.26;100.00
30636;BME280;17400;52.392;9.750;2022-10-15T08:57:58;100136.41;;;15.36;100.00
30636;BME280;17400;52.392;9.750;2022-10-15T09:00:32;100137.56;;;15.40;100.00
30636;BME280;17400;52.392;9.750;2022-10-15T09:03:04;100139.25;;;15.58;100.00
30636;BME280;17400;52.392;9.750;2022-10-15T09:05:46;100139.59;;;15.62;100.00
30636;BME280;17400;52.392;9.750;2022-10-15T09:08:22;100146.97;;;15.61;100.00
30636;BME280;17400;52.392;9.750;2022-10-15T09:10:59;100136.13;;;15.49;100.00
30636;BME280;17400;52.392;9.750;2022-10-15T09:13:30;100136.94;;;15.50;100.00
30636;BME280;17400;52.392;9.750;2022-10-15T09:16:01;100145.72;;;15.52;100.00
30636;BME280;17400;52.392;9.750;2022-10-15T09:18:33;100145.34;;;15.48;100.00
30636;BME280;17400;52.392;9.750;2022-10-15T09:21:04;100141.25;;;15.34;100.00
30636;BME280;17400;52.392;9.750;2022-10-15T09:23:32;100139.69;;;15.38;100.00
30636;BME280;17400;52.392;9.750;2022-10-15T09:26:07;100135.91;;;15.39;100.00
30636;BME280;17400;52.392;9.750;2022-10-15T09:28:43;100140.81;;;15.54;100.00
30636;BME280;17400;52.392;9.750;2022-10-15T09:31:17;100137.94;;;15.61;100.00
30636;BME280;17400;52.392;9.750;2022-10-15T09:33:50;100139.09;;;15.48;100.00
30636;BME280;17400;52.392;9.750;2022-10-15T09:36:30;100135.25;;;15.49;100.00
30636;BME280;17400;52.392;9.750;2022-10-15T09:39:08;100143.22;;;15.51;100.00
30636;BME280;17400;52.392;9.750;2022-10-15T09:41:49;100141.28;;;15.63;100.00
30636;BME280;17400;52.392;9.750;2022-10-15T09:44:24;100139.28;;;15.75;100.00
30636;BME280;17400;52.392;9.750;2022-10-15T09:46:55;100139.09;;;15.65;100.00
30636;BME280;17400;52.392;9.750;2022-10-15T09:49:23;100132.72;;;15.59;100.00
30636;BME280;17400;52.392;9.750;2022-10-15T09:52:03;100128.78;;;15.67;100.00
30636;BME280;17400;52.392;9.750;2022-10-15T09:54:39;100130.63;;;15.78;100.00
30636;BME280;17400;52.392;9.750;2022-10-15T09:57:12;100133.38;;;15.78;100.00
30636;BME280;17400;52.392;9.750;2022-10-15T09:59:51;100132.72;;;15.88;100.00
30636;BME280;17400;52.392;9.750;2022-10-15T10:02:20;100129.44;;;16.03;100.00
30636;BME280;17400;52.392;9.750;2022-10-15T10:04:49;100132.59;;;16.12;100.00
30636;BME280;17400;52.392;9.750;2022-10-15T10:07:33;100134.16;;;16.08;100.00
30636;BME280;17400;52.392;9.750;2022-10-15T10:10:05;100134.25;;;16.13;100.00
30636;BME280;17400;52.392;9.750;2022-10-15T10:12:34;100133.06;;;16.26;100.00
30636;BME280;17400;52.392;9.750;2022-10-15T10:15:06;100138.38;;;16.15;100.00
30636;BME280;17400;52.392;9.750;2022-10-15T10:17:50;100135.41;;;16.17;100.00
30636;BME280;17400;52.392;9.750;2022-10-15T10:20:19;100134.41;;;16.23;100.00
30636;BME280;17400;52.392;9.750;2022-10-15T10:22:51;100133.47;;;16.18;100.00
30636;BME280;17400;52.392;9.750;2022-10-15T10:25:31;100140.28;;;16.15;100.00
30636;BME280;17400;52.392;9.750;2022-10-15T10:28:04;100142.34;;;16.25;100.00
30636;BME280;17400;52.392;9.750;2022-10-15T10:30:36;100140.34;;;16.37;100.00
30636;BME280;17400;52.392;9.750;2022-10-15T10:33:05;100131.16;;;16.43;100.00
30636;BME280;17400;52.392;9.750;2022-10-15T10:35:42;100132.91;;;16.15;100.00
30636;BME280;17400;52.392;9.750;2022-10-15T10:38:19;100124.56;;;16.05;100.00
30636;BME280;17400;52.392;9.750;2022-10-15T10:40:52;100128.94;;;16.06;100.00
30636;BME280;17400;52.392;9.750;2022-10-15T10:43:24;100126.88;;;16.13;100.00
30636;BME280;17400;52.392;9.750;2022-10-15T10:45:57;100125.97;;;16.25;100.00
30636;BME280;17400;52.392;9.750;2022-10-15T10:48:28;100125.63;;;16.38;100.00
30636;BME280;17400;52.392;9.750;2022-10-15T10:51:10;100124.59;;;16.44;100.00
30636;BME280;17400;52.392;9.750;2022-10-15T10:53:48;100112.59;;;16.45;100.00
30636;BME280;17400;52.392;9.750;2022-10-15T10:56:21;100113.75;;;16.49;100.00
30636;BME280;17400;52.392;9.750;2022-10-15T10:58:55;100117.97;;;16.57;100.00
30636;BME280;17400;52.392;9.750;2022-10-15T11:01:24;100123.00;;;16.65;100.00
30636;BME280;17400;52.392;9.750;2022-10-15T11:04:11;100118.28;;;16.61;100.00
30636;BME280;17400;52.392;9.750;2022-10-15T11:06:54;100126.94;;;16.53;100.00
30636;BME280;17400;52.392;9.750;2022-10-15T11:09:42;100124.91;;;16.65;100.00
30636;BME280;17400;52.392;9.750;2022-10-15T11:12:34;100122.16;;;16.65;100.00
30636;BME280;17400;52.392;9.750;2022-10-15T11:15:19;100113.47;;;16.68;100.00
30636;BME280;17400;52.392;9.750;2022-10-15T11:18:00;100114.50;;;16.62;100.00
30636;BME280;17400;52.392;9.750;2022-10-15T11:20:47;100115.31;;;16.62;100.00
30636;BME280;17400;52.392;9.750;2022-10-15T11:23:40;100099.78;;;16.68;100.00
30636;BME280;17400;52.392;9.750;2022-10-15T11:26:22;100104.63;;;16.61;100.00
30636;BME280;17400;52.392;9.750;2022-10-15T11:29:09;100093.19;;;16.64;100.00
30636;BME280;17400;52.392;9.750;2022-10-15T11:31:46;100101.47;;;16.69;100.00
30636;BME280;17400;52.392;9.750;2022-10-15T11:34:43;100095.50;;;16.72;100.00
30636;BME280;17400;52.392;9.750;2022-10-15T11:37:27;100104.25;;;16.74;100.00
30636;BME280;17400;52.392;9.750;2022-10-15T11:40:08;100094.72;;;16.77;100.00
30636;BME280;17400;52.392;9.750;2022-10-15T11:42:45;100091.75;;;16.78;100.00
30636;BME280;17400;52.392;9.750;2022-10-15T11:45:33;100079.91;;;16.90;100.00
30636;BME280;17400;52.392;9.750;2022-10-15T11:48:08;100080.91;;;17.06;100.00
30636;BME280;17400;52.392;9.750;2022-10-15T11:50:40;100079.03;;;17.11;100.00
30636;BME280;17400;52.392;9.750;2022-10-15T11:53:34;100084.56;;;17.17;100.00
30636;BME280;17400;52.392;9.750;2022-10-15T11:56:11;100086.50;;;17.16;100.00
30636;BME280;17400;52.392;9.750;2022-10-15T11:58:44;100097.09;;;17.12;100.00
30636;BME280;17400;52.392;9.750;2022-10-15T12:01:18;100088.91;;;17.12;100.00
30636;BME280;17400;52.392;9.750;2022-10-15T12:03:50;100088.66;;;17.14;100.00
30636;BME280;17400;52.392;9.750;2022-10-15T12:06:21;100089.97;;;17.11;100.00
30636;BME280;17400;52.392;9.750;2022-10-15T12:08:52;100080.69;;;17.12;100.00
30636;BME280;17400;52.392;9.750;2022-10-15T12:11:33;100075.78;;;17.14;100.00
30636;BME280;17400;52.392;9.750;2022-10-15T12:14:16;100071.47;;;17.19;100.00
30636;BME280;17400;52.392;9.750;2022-10-15T12:16:54;100074.56;;;17.27;100.00
30636;BME280;17400;52.392;9.750;2022-10-15T12:19:28;100069.41;;;17.31;100.00
30636;BME280;17400;52.392;9.750;2022-10-15T12:22:03;100062.91;;;17.37;100.00
30636;BME280;17400;52.392;9.750;2022-10-15T12:24:53;100053.31;;;17.67;100.00
30636;BME280;17400;52.392;9.750;2022-10-15T12:27:25;100054.91;;;17.90;100.00
30636;BME280;17400;52.392;9.750;2022-10-15T12:30:19;100053.97;;;18.12;100.00
30636;BME280;17400;52.392;9.750;2022-10-15T12:32:49;100043.16;;;18.33;100.00
30636;BME280;17400;52.392;9.750;2022-10-15T12:35:29;100030.06;;;18.45;100.00
30636;BME280;17400;52.392;9.750;2022-10-15T12:38:10;100025.44;;;18.56;100.00
30636;BME280;17400;52.392;9.750;2022-10-15T12:40:39;100024.06;;;18.53;100.00
30636;BME280;17400;52.392;9.750;2022-10-15T12:43:13;100013.72;;;18.65;100.00
30636;BME280;17400;52.392;9.750;2022-10-15T12:45:50;100022.19;;;18.64;100.00
30636;BME280;17400;52.392;9.750;2022-10-15T12:48:27;100021.66;;;18.62;100.00
30636;BME280;17400;52.392;9.750;2022-10-15T12:51:34;100016.72;;;18.59;100.00
30636;BME280;17400;52.392;9.750;2022-10-15T12:54:33;99999.25;;;18.86;100.00
30636;BME280;17400;52.392;9.750;2022-10-15T12:57:13;100007.00;;;19.04;99.59
30636;BME280;17400;52.392;9.750;2022-10-15T12:59:55;100004.28;;;19.25;99.04
30636;BME280;17400;52.392;9.750;2022-10-15T13:02:37;100000.75;;;19.45;97.26
30636;BME280;17400;52.392;9.750;2022-10-15T13:05:23;99998.25;;;19.59;95.68
30636;BME280;17400;52.392;9.750;2022-10-15T13:07:52;99988.13;;;19.59;96.46
30636;BME280;17400;52.392;9.750;2022-10-15T13:10:25;99985.38;;;19.59;95.61